createdAt,value
2023-04-08T07:44:07.868Z,58.09
2023-04-08T07:49:34.968Z,56.56
2023-04-08T07:55:02.292Z,56.49
2023-04-08T08:00:31.645Z,54.79
2023-04-08T08:05:59.120Z,55.65
2023-04-08T08:11:29.788Z,55.12
2023-04-08T08:16:57.460Z,51.85
2023-04-08T08:22:24.866Z,50.11
2023-04-08T08:27:52.119Z,49.90
2023-04-08T08:33:19.966Z,47.42
2023-04-08T08:38:46.994Z,46.89
2023-04-08T08:44:14.665Z,47.15
2023-04-08T08:49:42.612Z,47.39
2023-04-08T08:55:27.742Z,47.26
2023-04-08T09:00:58.110Z,47.28
2023-04-08T09:06:25.195Z,47.44
2023-04-08T09:12:04.870Z,48.21
2023-04-08T09:17:34.303Z,47.02
2023-04-08T09:23:03.101Z,47.48
2023-04-08T09:28:30.294Z,46.98
2023-04-08T09:34:00.113Z,46.07
2023-04-08T09:39:27.139Z,45.22
2023-04-08T09:44:56.231Z,44.16
2023-04-08T09:50:28.286Z,43.24
2023-04-08T09:55:57.738Z,42.58
2023-04-08T10:01:38.436Z,40.86
2023-04-08T10:07:08.934Z,41.10
2023-04-08T10:12:36.949Z,40.11
2023-04-08T10:18:07.103Z,40.06
2023-04-08T10:24:02.012Z,41.18
2023-04-08T10:29:31.205Z,41.10
2023-04-08T10:34:58.407Z,42.19
2023-04-08T10:40:27.520Z,40.86
2023-04-08T10:45:56.524Z,39.50
2023-04-08T10:51:25.186Z,38.34
2023-04-08T10:56:53.806Z,36.14
2023-04-08T11:02:21.771Z,36.28
2023-04-08T11:07:49.834Z,34.98
2023-04-08T11:13:18.510Z,35.85
2023-04-08T11:18:46.278Z,35.22
2023-04-08T11:24:13.665Z,34.26
2023-04-08T11:29:42.322Z,35.46
2023-04-08T11:35:09.861Z,32.37
2023-04-08T11:40:38.231Z,31.89
2023-04-08T11:46:12.913Z,33.20
2023-04-08T11:51:58.140Z,35.67
2023-04-08T11:57:32.972Z,34.21
2023-04-08T12:03:00.711Z,33.30
2023-04-08T12:08:28.608Z,32.67
2023-04-08T12:13:57.164Z,33.70
2023-04-08T12:19:25.141Z,34.32
2023-04-08T12:24:52.878Z,34.83
2023-04-08T12:30:21.609Z,34.74
2023-04-08T12:35:48.942Z,33.51
2023-04-08T12:41:17.288Z,33.37
2023-04-08T12:46:44.921Z,32.08
2023-04-08T12:52:12.571Z,32.86
2023-04-08T12:57:40.048Z,32.16
2023-04-08T13:03:08.164Z,33.05
2023-04-08T13:08:36.425Z,33.28
2023-04-08T13:14:04.016Z,33.31
2023-04-08T13:19:32.060Z,34.59
2023-04-08T13:24:59.827Z,34.50
2023-04-08T13:30:26.872Z,35.48
2023-04-08T13:35:53.848Z,32.87
2023-04-08T13:41:25.559Z,31.91
2023-04-08T13:46:53.390Z,33.07
2023-04-08T13:52:21.375Z,33.64
2023-04-08T13:57:49.184Z,32.85
2023-04-08T14:03:18.168Z,32.89
2023-04-08T14:08:46.040Z,34.75
2023-04-08T14:14:13.563Z,36.13
2023-04-08T14:19:42.151Z,35.40
2023-04-08T14:25:10.221Z,34.70
2023-04-08T14:30:38.114Z,34.88
2023-04-08T14:36:06.454Z,34.35
2023-04-08T14:41:34.116Z,32.75
2023-04-08T14:47:00.928Z,34.51
2023-04-08T14:52:28.198Z,35.11
2023-04-08T14:57:59.110Z,33.32
2023-04-08T15:03:28.470Z,34.43
2023-04-08T15:08:56.365Z,35.24
2023-04-08T15:14:24.247Z,34.82
2023-04-08T15:19:52.335Z,35.10
2023-04-08T15:25:22.719Z,35.34
2023-04-08T15:30:51.365Z,35.76
2023-04-08T15:36:20.077Z,37.12
2023-04-08T15:41:47.281Z,39.21
2023-04-08T15:47:15.127Z,39.59
2023-04-08T15:52:42.679Z,39.82
2023-04-08T15:58:10.287Z,40.14
2023-04-08T16:03:37.740Z,39.92
2023-04-08T16:09:04.865Z,40.22
2023-04-08T16:14:33.227Z,40.82
2023-04-08T16:20:00.736Z,40.73
2023-04-08T16:25:28.436Z,40.86
